createdAt,value
2017-01-19T04:00:30.316Z,1040.4
2017-01-19T04:00:55.902Z,1040.43
2017-01-19T04:01:21.479Z,1040.4
2017-01-19T04:01:47.058Z,1040.43
2017-01-19T04:02:12.637Z,1040.39
2017-01-19T04:02:38.240Z,1040.38
2017-01-19T04:03:03.922Z,1040.39
2017-01-19T04:03:29.703Z,1040.41
2017-01-19T04:03:55.288Z,1040.37
2017-01-19T04:04:20.873Z,1040.35
2017-01-19T04:04:46.551Z,1040.35
2017-01-19T04:05:12.191Z,1040.34
2017-01-19T04:05:37.792Z,1040.34
2017-01-19T04:06:03.394Z,1040.35
2017-01-19T04:06:28.994Z,1040.37
2017-01-19T04:06:54.591Z,1040.39
2017-01-19T04:07:20.202Z,1040.37
2017-01-19T04:07:45.801Z,1040.38
2017-01-19T04:08:11.538Z,1040.37
2017-01-19T04:08:37.115Z,1040.32
2017-01-19T04:09:02.718Z,1040.38
2017-01-19T04:09:28.347Z,1040.36
2017-01-19T04:09:53.950Z,1040.37
2017-01-19T04:10:19.513Z,1040.38
2017-01-19T04:10:45.208Z,1040.33
2017-01-19T04:11:10.803Z,1040.36
2017-01-19T04:11:36.385Z,1040.35
2017-01-19T04:12:02.008Z,1040.32
2017-01-19T04:12:27.571Z,1040.32
2017-01-19T04:12:53.156Z,1040.3
2017-01-19T04:13:18.702Z,1040.31
2017-01-19T04:13:44.393Z,1040.27
2017-01-19T04:14:09.963Z,1040.3
2017-01-19T04:14:35.521Z,1040.3
2017-01-19T04:15:01.112Z,1040.32
2017-01-19T04:15:26.816Z,1040.31
2017-01-19T04:15:52.415Z,1040.27
2017-01-19T04:16:17.980Z,1040.23
2017-01-19T04:16:43.629Z,1040.23
2017-01-19T04:17:09.184Z,1040.21
2017-01-19T04:17:34.765Z,1040.18
2017-01-19T04:18:00.421Z,1040.2
2017-01-19T04:18:25.988Z,1040.17
2017-01-19T04:18:51.537Z,1040.16
2017-01-19T04:19:17.104Z,1040.15
2017-01-19T04:19:42.690Z,1040.12
2017-01-19T04:20:08.256Z,1040.14
2017-01-19T04:20:33.825Z,1040.15
2017-01-19T04:20:59.408Z,1040.1
2017-01-19T04:21:24.987Z,1040.14
2017-01-19T04:21:50.559Z,1040.12
2017-01-19T04:22:16.172Z,1040.09
2017-01-19T04:22:41.751Z,1040.09
2017-01-19T04:23:07.320Z,1040.07
2017-01-19T04:23:32.895Z,1040.07
2017-01-19T04:23:58.458Z,1040.06
2017-01-19T04:24:24.017Z,1040.11
2017-01-19T04:24:49.586Z,1040.07
2017-01-19T04:25:15.193Z,1040.06
2017-01-19T04:25:40.769Z,1040.06
2017-01-19T04:26:06.332Z,1040.06
2017-01-19T04:26:31.894Z,1040.05
2017-01-19T04:26:57.473Z,1040.01
2017-01-19T04:27:23.073Z,1040.03
2017-01-19T04:27:48.642Z,1040
2017-01-19T04:28:14.223Z,1040
2017-01-19T04:28:39.815Z,1040.01
2017-01-19T04:29:05.380Z,1039.99
2017-01-19T04:29:31.062Z,1040.01
2017-01-19T04:29:56.664Z,1039.95
2017-01-19T04:30:22.253Z,1039.96
2017-01-19T04:30:47.834Z,1039.97
2017-01-19T04:31:13.441Z,1040
2017-01-19T04:31:39.044Z,1040
2017-01-19T04:32:04.618Z,1039.95
2017-01-19T04:32:30.200Z,1040
2017-01-19T04:32:55.759Z,1039.97
2017-01-19T04:33:21.344Z,1039.98
2017-01-19T04:33:46.919Z,1039.95
2017-01-19T04:34:12.509Z,1039.96
2017-01-19T04:34:38.101Z,1039.93
2017-01-19T04:35:03.684Z,1039.95
2017-01-19T04:35:29.260Z,1039.94
2017-01-19T04:35:54.815Z,1039.94
2017-01-19T04:36:20.381Z,1039.93
2017-01-19T04:36:45.972Z,1039.91
2017-01-19T04:37:11.541Z,1039.97
2017-01-19T04:37:37.100Z,1039.93
2017-01-19T04:38:02.682Z,1039.92
2017-01-19T04:38:28.326Z,1039.91
2017-01-19T04:38:53.906Z,1039.93
2017-01-19T04:39:19.476Z,1039.92
2017-01-19T04:39:45.145Z,1039.93
2017-01-19T04:40:10.732Z,1039.89
2017-01-19T04:40:36.297Z,1039.89
2017-01-19T04:41:01.854Z,1039.9
2017-01-19T04:41:27.842Z,1039.86
2017-01-19T04:41:53.310Z,1039.85
2017-01-19T04:42:18.876Z,1039.87
2017-01-19T04:42:44.447Z,1039.86
2017-01-19T04:43:10.004Z,1039.89
2017-01-19T04:43:35.604Z,1039.87
2017-01-19T04:44:01.159Z,1039.83
2017-01-19T04:44:26.755Z,1039.85
2017-01-19T04:44:52.326Z,1039.84
2017-01-19T04:45:17.883Z,1039.8
2017-01-19T04:45:43.448Z,1039.84
2017-01-19T04:46:09.004Z,1039.81
2017-01-19T04:46:34.581Z,1039.83
2017-01-19T04:47:00.176Z,1039.84
2017-01-19T04:47:25.878Z,1039.86
2017-01-19T04:47:51.456Z,1039.86
2017-01-19T04:48:17.024Z,1039.83
2017-01-19T04:48:42.608Z,1039.86
2017-01-19T04:49:08.218Z,1039.82
2017-01-19T04:49:33.789Z,1039.85
2017-01-19T04:49:59.385Z,1039.83
2017-01-19T04:50:24.984Z,1039.8
2017-01-19T04:50:50.577Z,1039.84
2017-01-19T04:51:16.162Z,1039.85
2017-01-19T04:51:41.736Z,1039.83
2017-01-19T04:52:07.327Z,1039.81
2017-01-19T04:52:32.956Z,1039.81
2017-01-19T04:52:58.516Z,1039.85
2017-01-19T04:53:24.180Z,1039.81
2017-01-19T04:53:49.850Z,1039.82
2017-01-19T04:54:15.589Z,1039.81
2017-01-19T04:54:41.207Z,1039.86
2017-01-19T04:55:06.783Z,1039.82
2017-01-19T04:55:32.344Z,1039.83
2017-01-19T04:55:57.976Z,1039.8
2017-01-19T04:56:23.568Z,1039.86
2017-01-19T04:56:49.207Z,1039.82
2017-01-19T04:57:14.804Z,1039.8
2017-01-19T04:57:40.386Z,1039.8
2017-01-19T04:58:05.960Z,1039.82
2017-01-19T04:58:31.646Z,1039.81
2017-01-19T04:58:57.199Z,1039.83
2017-01-19T04:59:22.766Z,1039.83
2017-01-19T04:59:48.428Z,1039.83
2017-01-19T05:00:13.994Z,1039.79
2017-01-19T05:00:39.578Z,1039.78
2017-01-19T05:01:05.146Z,1039.84
2017-01-19T05:01:30.755Z,1039.81
2017-01-19T05:01:56.334Z,1039.8
2017-01-19T05:02:21.934Z,1039.83
2017-01-19T05:02:47.537Z,1039.8
2017-01-19T05:03:13.208Z,1039.81
2017-01-19T05:03:38.800Z,1039.77
2017-01-19T05:04:04.403Z,1039.76
2017-01-19T05:04:29.997Z,1039.76
2017-01-19T05:04:55.562Z,1039.76
2017-01-19T05:05:21.132Z,1039.71
2017-01-19T05:05:46.755Z,1039.72
2017-01-19T05:06:12.336Z,1039.72
2017-01-19T05:06:37.961Z,1039.71
2017-01-19T05:07:03.523Z,1039.71
2017-01-19T05:07:29.206Z,1039.7
2017-01-19T05:07:54.848Z,1039.76
2017-01-19T05:08:20.442Z,1039.72
2017-01-19T05:08:46.009Z,1039.74
2017-01-19T05:09:11.583Z,1039.7
2017-01-19T05:09:37.226Z,1039.73
2017-01-19T05:10:02.796Z,1039.69
2017-01-19T05:10:28.328Z,1039.71
2017-01-19T05:10:53.890Z,1039.69
2017-01-19T05:11:19.656Z,1039.69
2017-01-19T05:11:45.301Z,1039.67
2017-01-19T05:12:10.843Z,1039.68
2017-01-19T05:12:36.405Z,1039.65
2017-01-19T05:13:01.964Z,1039.63
2017-01-19T05:13:27.536Z,1039.6
2017-01-19T05:13:53.102Z,1039.59
2017-01-19T05:14:18.676Z,1039.61
2017-01-19T05:14:44.227Z,1039.56
2017-01-19T05:15:09.771Z,1039.61
2017-01-19T05:15:35.361Z,1039.61
2017-01-19T05:16:00.920Z,1039.55
2017-01-19T05:16:26.565Z,1039.55
2017-01-19T05:16:52.125Z,1039.57
2017-01-19T05:17:17.704Z,1039.56
2017-01-19T05:17:43.436Z,1039.57
2017-01-19T05:18:09.022Z,1039.52
2017-01-19T05:18:34.666Z,1039.57
2017-01-19T05:19:00.253Z,1039.52
2017-01-19T05:19:25.840Z,1039.52
2017-01-19T05:19:51.398Z,1039.54
2017-01-19T05:20:17.027Z,1039.5
2017-01-19T05:20:42.583Z,1039.56
2017-01-19T05:21:08.127Z,1039.52
2017-01-19T05:21:33.695Z,1039.52
2017-01-19T05:21:59.292Z,1039.55
2017-01-19T05:22:24.834Z,1039.53
2017-01-19T05:22:50.475Z,1039.56
2017-01-19T05:23:16.145Z,1039.54
2017-01-19T05:23:41.803Z,1039.54
2017-01-19T05:24:07.352Z,1039.52
2017-01-19T05:24:32.913Z,1039.51
2017-01-19T05:24:58.451Z,1039.53
2017-01-19T05:25:24.010Z,1039.51
2017-01-19T05:25:49.551Z,1039.5
2017-01-19T05:26:15.112Z,1039.52
2017-01-19T05:26:40.713Z,1039.5
2017-01-19T05:27:06.287Z,1039.53
2017-01-19T05:27:31.884Z,1039.51
2017-01-19T05:27:57.461Z,1039.54
2017-01-19T05:28:23.069Z,1039.52
2017-01-19T05:28:48.642Z,1039.57
2017-01-19T05:29:14.220Z,1039.53
2017-01-19T05:29:39.778Z,1039.56
2017-01-19T05:30:05.333Z,1039.57
2017-01-19T05:30:30.894Z,1039.55
2017-01-19T05:30:56.516Z,1039.59
2017-01-19T05:31:22.164Z,1039.59
2017-01-19T05:31:47.742Z,1039.59
2017-01-19T05:32:13.359Z,1039.63
2017-01-19T05:32:38.894Z,1039.65
2017-01-19T05:33:04.432Z,1039.64
2017-01-19T05:33:29.988Z,1039.64
2017-01-19T05:33:55.533Z,1039.64
2017-01-19T05:34:21.132Z,1039.62
2017-01-19T05:34:46.680Z,1039.69
2017-01-19T05:35:12.220Z,1039.69
2017-01-19T05:35:37.846Z,1039.69
2017-01-19T05:36:03.560Z,1039.67
2017-01-19T05:36:29.132Z,1039.74
2017-01-19T05:36:54.726Z,1039.72
2017-01-19T05:37:20.269Z,1039.76
2017-01-19T05:37:45.989Z,1039.72
2017-01-19T05:38:11.562Z,1039.76
2017-01-19T05:38:37.154Z,1039.78
2017-01-19T05:39:02.778Z,1039.77
2017-01-19T05:39:28.346Z,1039.72
2017-01-19T05:39:53.905Z,1039.79
2017-01-19T05:40:19.561Z,1039.74
2017-01-19T05:40:45.137Z,1039.75
2017-01-19T05:41:10.701Z,1039.76
2017-01-19T05:41:36.496Z,1039.74
2017-01-19T05:42:02.072Z,1039.71
2017-01-19T05:42:27.644Z,1039.68
2017-01-19T05:42:53.179Z,1039.73
2017-01-19T05:43:18.802Z,1039.7
2017-01-19T05:43:44.355Z,1039.62
2017-01-19T05:44:09.921Z,1039.68
2017-01-19T05:44:35.571Z,1039.72
2017-01-19T05:45:01.129Z,1039.69
2017-01-19T05:45:26.670Z,1039.67
2017-01-19T05:45:52.251Z,1039.68
2017-01-19T05:46:17.939Z,1039.67
2017-01-19T05:46:43.455Z,1039.69
2017-01-19T05:47:09.020Z,1039.65
2017-01-19T05:47:34.582Z,1039.67
2017-01-19T05:48:00.165Z,1039.69
2017-01-19T05:48:25.813Z,1039.67
2017-01-19T05:48:51.377Z,1039.69
2017-01-19T05:49:16.913Z,1039.72
2017-01-19T05:49:42.479Z,1039.71
2017-01-19T05:50:08.025Z,1039.7
2017-01-19T05:50:33.588Z,1039.69
2017-01-19T05:50:59.199Z,1039.67
2017-01-19T05:51:24.752Z,1039.71
2017-01-19T05:51:50.370Z,1039.69
2017-01-19T05:52:15.943Z,1039.67
2017-01-19T05:52:41.508Z,1039.67
2017-01-19T05:53:07.081Z,1039.65
2017-01-19T05:53:32.778Z,1039.63
2017-01-19T05:53:58.338Z,1039.64
2017-01-19T05:54:23.890Z,1039.65
2017-01-19T05:54:49.527Z,1039.66
2017-01-19T05:55:15.090Z,1039.67
2017-01-19T05:55:40.648Z,1039.65
2017-01-19T05:56:06.351Z,1039.65
2017-01-19T05:56:31.908Z,1039.65
2017-01-19T05:56:57.482Z,1039.65
2017-01-19T05:57:23.099Z,1039.68
2017-01-19T05:57:48.682Z,1039.7
2017-01-19T05:58:14.232Z,1039.65
2017-01-19T05:58:39.765Z,1039.63
2017-01-19T05:59:05.305Z,1039.66
2017-01-19T05:59:30.866Z,1039.68
2017-01-19T05:59:56.489Z,1039.64
2017-01-19T06:00:22.052Z,1039.66
2017-01-19T06:00:47.610Z,1039.67
2017-01-19T06:01:13.309Z,1039.67
2017-01-19T06:01:38.866Z,1039.65
2017-01-19T06:02:04.427Z,1039.67
2017-01-19T06:02:29.989Z,1039.66
2017-01-19T06:02:55.718Z,1039.66
2017-01-19T06:03:21.287Z,1039.69
2017-01-19T06:03:46.938Z,1039.66
2017-01-19T06:04:12.534Z,1039.68
2017-01-19T06:04:38.091Z,1039.67
2017-01-19T06:05:03.654Z,1039.7
2017-01-19T06:05:29.218Z,1039.71
2017-01-19T06:05:54.824Z,1039.7
2017-01-19T06:06:20.381Z,1039.69
2017-01-19T06:06:45.958Z,1039.71
2017-01-19T06:07:11.523Z,1039.74
2017-01-19T06:07:37.127Z,1039.71
2017-01-19T06:08:02.683Z,1039.72
2017-01-19T06:08:28.229Z,1039.72
2017-01-19T06:08:53.771Z,1039.7
2017-01-19T06:09:19.321Z,1039.71
2017-01-19T06:09:44.883Z,1039.71
2017-01-19T06:10:10.459Z,1039.69
2017-01-19T06:10:36.039Z,1039.67
2017-01-19T06:11:01.611Z,1039.67
2017-01-19T06:11:27.238Z,1039.69
2017-01-19T06:11:52.844Z,1039.69
2017-01-19T06:12:18.419Z,1039.7
2017-01-19T06:12:43.986Z,1039.73
2017-01-19T06:13:09.580Z,1039.7
2017-01-19T06:13:35.175Z,1039.77
2017-01-19T06:14:00.747Z,1039.68
2017-01-19T06:14:26.301Z,1039.71
2017-01-19T06:14:51.894Z,1039.72
2017-01-19T06:15:17.576Z,1039.7
2017-01-19T06:15:43.273Z,1039.69
2017-01-19T06:16:08.893Z,1039.68
2017-01-19T06:16:34.454Z,1039.72
2017-01-19T06:17:00.082Z,1039.73
2017-01-19T06:17:25.630Z,1039.73
2017-01-19T06:17:51.192Z,1039.74
2017-01-19T06:18:16.768Z,1039.74
2017-01-19T06:18:42.335Z,1039.8
2017-01-19T06:19:07.869Z,1039.79
2017-01-19T06:19:33.479Z,1039.8
2017-01-19T06:19:59.043Z,1039.76
2017-01-19T06:20:24.624Z,1039.75
2017-01-19T06:20:50.192Z,1039.75
2017-01-19T06:21:15.752Z,1039.76
2017-01-19T06:21:41.292Z,1039.75
2017-01-19T06:22:06.872Z,1039.76
2017-01-19T06:22:32.413Z,1039.74
2017-01-19T06:22:58.015Z,1039.77
2017-01-19T06:23:23.580Z,1039.76
2017-01-19T06:23:49.150Z,1039.73
2017-01-19T06:24:14.713Z,1039.72
2017-01-19T06:24:40.261Z,1039.74
2017-01-19T06:25:05.857Z,1039.74
2017-01-19T06:25:31.441Z,1039.74
2017-01-19T06:25:56.986Z,1039.74
2017-01-19T06:26:22.540Z,1039.72
2017-01-19T06:26:48.103Z,1039.75
2017-01-19T06:27:13.785Z,1039.75
2017-01-19T06:27:39.352Z,1039.71
2017-01-19T06:28:04.968Z,1039.75
2017-01-19T06:28:30.603Z,1039.77
2017-01-19T06:28:56.170Z,1039.72
2017-01-19T06:29:21.734Z,1039.73
2017-01-19T06:29:47.298Z,1039.76
2017-01-19T06:30:12.867Z,1039.74
2017-01-19T06:30:38.501Z,1039.78
2017-01-19T06:31:04.080Z,1039.79
2017-01-19T06:31:29.638Z,1039.81
2017-01-19T06:31:55.292Z,1039.76
2017-01-19T06:32:20.898Z,1039.76
2017-01-19T06:32:46.516Z,1039.8
2017-01-19T06:33:12.094Z,1039.76
2017-01-19T06:33:37.653Z,1039.78
2017-01-19T06:34:03.214Z,1039.76
2017-01-19T06:34:28.772Z,1039.76
2017-01-19T06:34:54.363Z,1039.78
2017-01-19T06:35:19.956Z,1039.78
2017-01-19T06:35:45.522Z,1039.84
2017-01-19T06:36:11.149Z,1039.84
2017-01-19T06:36:36.757Z,1039.87
2017-01-19T06:37:02.299Z,1039.83
2017-01-19T06:37:27.880Z,1039.86
2017-01-19T06:37:53.452Z,1039.88
2017-01-19T06:38:19.081Z,1039.88
2017-01-19T06:38:44.667Z,1039.95
2017-01-19T06:39:10.328Z,1039.93
2017-01-19T06:39:35.901Z,1039.95
2017-01-19T06:40:01.466Z,1039.93
2017-01-19T06:40:27.029Z,1039.94
2017-01-19T06:40:52.625Z,1039.92
2017-01-19T06:41:18.160Z,1039.95
2017-01-19T06:41:43.813Z,1039.91
2017-01-19T06:42:09.375Z,1039.9
2017-01-19T06:42:34.988Z,1039.93
2017-01-19T06:43:00.560Z,1039.91
2017-01-19T06:43:26.138Z,1039.94
2017-01-19T06:43:51.690Z,1039.92
2017-01-19T06:44:17.287Z,1039.95
2017-01-19T06:44:42.874Z,1039.96
2017-01-19T06:45:08.453Z,1039.97
2017-01-19T06:45:34.021Z,1039.96
2017-01-19T06:45:59.707Z,1040
2017-01-19T06:46:25.299Z,1039.99
2017-01-19T06:46:50.867Z,1040.02
2017-01-19T06:47:16.463Z,1040.05
2017-01-19T06:47:42.171Z,1040.01
2017-01-19T06:48:07.735Z,1040.04
2017-01-19T06:48:33.310Z,1040.05
2017-01-19T06:48:58.980Z,1040.05
2017-01-19T06:49:24.557Z,1040.04
2017-01-19T06:49:50.129Z,1040.04
2017-01-19T06:50:15.810Z,1040.04
2017-01-19T06:50:41.383Z,1040.02
2017-01-19T06:51:06.984Z,1040.09
2017-01-19T06:51:32.556Z,1040.06
2017-01-19T06:51:58.108Z,1040.02
2017-01-19T06:52:23.675Z,1040.06
2017-01-19T06:52:49.389Z,1040.04
2017-01-19T06:53:14.952Z,1040.04
2017-01-19T06:53:40.515Z,1040.08
2017-01-19T06:54:06.090Z,1040.05
2017-01-19T06:54:31.730Z,1040.08
2017-01-19T06:54:57.298Z,1040.08
2017-01-19T06:55:22.861Z,1040.07
2017-01-19T06:55:48.565Z,1040.07
2017-01-19T06:56:14.129Z,1040.11
2017-01-19T06:56:39.726Z,1040.09
2017-01-19T06:57:05.314Z,1040.08
2017-01-19T06:57:30.863Z,1040.07
2017-01-19T06:57:56.421Z,1040.05
2017-01-19T06:58:21.976Z,1040.09
2017-01-19T06:58:47.546Z,1040.1
2017-01-19T06:59:13.189Z,1040.09
2017-01-19T06:59:38.810Z,1040.11
2017-01-19T07:00:04.373Z,1040.1
2017-01-19T07:01:07.578Z,1040.11
2017-01-19T07:01:33.151Z,1040.12
2017-01-19T07:01:58.742Z,1040.08
2017-01-19T07:02:24.309Z,1040.09
2017-01-19T07:02:49.908Z,1040.08
2017-01-19T07:03:15.551Z,1040.09
2017-01-19T07:03:41.113Z,1040.06
2017-01-19T07:04:06.742Z,1040.11
2017-01-19T07:04:32.302Z,1040.08
2017-01-19T07:04:57.959Z,1040.12
2017-01-19T07:05:23.515Z,1040.07
2017-01-19T07:05:49.091Z,1040.14
2017-01-19T07:06:14.773Z,1040.09
2017-01-19T07:06:40.330Z,1040.11
2017-01-19T07:07:05.903Z,1040.14
2017-01-19T07:07:31.542Z,1040.15
2017-01-19T07:07:57.101Z,1040.15
2017-01-19T07:08:22.651Z,1040.13
2017-01-19T07:08:48.349Z,1040.16
2017-01-19T07:09:13.910Z,1040.15
2017-01-19T07:09:39.460Z,1040.16
2017-01-19T07:10:05.097Z,1040.14
2017-01-19T07:10:30.798Z,1040.15
2017-01-19T07:10:56.373Z,1040.14
2017-01-19T07:11:22.127Z,1040.11
2017-01-19T07:11:47.694Z,1040.11
2017-01-19T07:12:13.256Z,1040.09
2017-01-19T07:12:38.819Z,1040.09
2017-01-19T07:13:04.372Z,1040.05
2017-01-19T07:13:30.027Z,1040.07
2017-01-19T07:13:55.603Z,1040.1
2017-01-19T07:14:21.162Z,1040.09
2017-01-19T07:14:47.028Z,1040.09
2017-01-19T07:15:12.619Z,1040.07
2017-01-19T07:15:38.194Z,1040.11
2017-01-19T07:16:03.741Z,1040.1
2017-01-19T07:16:29.411Z,1040.11
2017-01-19T07:16:55.002Z,1040.11
2017-01-19T07:17:20.556Z,1040.1
2017-01-19T07:17:46.155Z,1040.15
2017-01-19T07:18:11.858Z,1040.11
2017-01-19T07:18:37.454Z,1040.12
2017-01-19T07:19:03.011Z,1040.15
2017-01-19T07:19:28.687Z,1040.16
2017-01-19T07:19:54.260Z,1040.14
2017-01-19T07:20:19.823Z,1040.1
2017-01-19T07:20:45.396Z,1040.16
2017-01-19T07:21:10.980Z,1040.13
2017-01-19T07:21:36.556Z,1040.1
2017-01-19T07:22:02.147Z,1040.14
2017-01-19T07:22:27.843Z,1040.12
2017-01-19T07:22:53.404Z,1040.13
2017-01-19T07:23:19.051Z,1040.13
2017-01-19T07:23:44.714Z,1040.14
2017-01-19T07:24:10.272Z,1040.14
2017-01-19T07:24:35.834Z,1040.14
2017-01-19T07:25:01.417Z,1040.12
2017-01-19T07:25:59.663Z,1040.15
2017-01-19T07:26:25.285Z,1040.11
2017-01-19T07:26:50.895Z,1040.15
2017-01-19T07:27:16.490Z,1040.11
2017-01-19T07:27:42.035Z,1040.13
2017-01-19T07:28:07.791Z,1040.13
2017-01-19T07:28:33.436Z,1040.14
2017-01-19T07:28:59.044Z,1040.13
2017-01-19T07:29:24.631Z,1040.14
2017-01-19T07:29:50.193Z,1040.15
2017-01-19T07:30:15.879Z,1040.15
2017-01-19T07:30:41.453Z,1040.15
2017-01-19T07:31:07.024Z,1040.13
2017-01-19T07:31:32.603Z,1040.12
2017-01-19T07:31:58.202Z,1040.12
2017-01-19T07:32:23.831Z,1040.12
2017-01-19T07:32:49.404Z,1040.11
2017-01-19T07:33:14.968Z,1040.1
2017-01-19T07:33:40.540Z,1040.12
2017-01-19T07:34:06.100Z,1040.13
2017-01-19T07:34:31.660Z,1040.12
2017-01-19T07:34:57.284Z,1040.15
2017-01-19T07:35:22.913Z,1040.14
2017-01-19T07:35:48.461Z,1040.13
2017-01-19T07:36:14.032Z,1040.13
2017-01-19T07:36:39.594Z,1040.12
2017-01-19T07:37:05.169Z,1040.16
2017-01-19T07:37:30.759Z,1040.13
2017-01-19T07:37:56.311Z,1040.11
2017-01-19T07:38:21.885Z,1040.14
2017-01-19T07:38:48.009Z,1040.11
2017-01-19T07:39:13.582Z,1040.13
2017-01-19T07:39:39.151Z,1040.11
2017-01-19T07:40:04.760Z,1040.16
2017-01-19T07:40:30.320Z,1040.16
2017-01-19T07:40:55.893Z,1040.13
2017-01-19T07:41:21.453Z,1040.16
2017-01-19T07:41:47.061Z,1040.15
2017-01-19T07:42:12.618Z,1040.14
2017-01-19T07:42:38.168Z,1040.21
2017-01-19T07:43:03.759Z,1040.12
2017-01-19T07:43:29.376Z,1040.16
2017-01-19T07:43:54.936Z,1040.16
2017-01-19T07:44:20.503Z,1040.12
2017-01-19T07:44:46.124Z,1040.11
2017-01-19T07:45:11.773Z,1040.12
2017-01-19T07:45:37.336Z,1040.13
2017-01-19T07:46:02.893Z,1040.12
2017-01-19T07:46:28.433Z,1040.13
2017-01-19T07:46:54.013Z,1040.07
2017-01-19T07:47:19.606Z,1040.12
2017-01-19T07:47:45.186Z,1040.16
2017-01-19T07:48:10.752Z,1040.16
2017-01-19T07:48:36.326Z,1040.14
2017-01-19T07:49:01.888Z,1040.16
2017-01-19T07:49:27.474Z,1040.17
2017-01-19T07:49:53.030Z,1040.19
2017-01-19T07:50:18.578Z,1040.18
2017-01-19T07:50:44.202Z,1040.21
2017-01-19T07:51:09.791Z,1040.21
2017-01-19T07:51:35.481Z,1040.24
2017-01-19T07:52:01.113Z,1040.21
2017-01-19T07:52:26.676Z,1040.22
2017-01-19T07:52:52.244Z,1040.24
2017-01-19T07:53:17.801Z,1040.19
2017-01-19T07:53:43.374Z,1040.22
2017-01-19T07:54:08.951Z,1040.2
2017-01-19T07:54:34.508Z,1040.18
2017-01-19T07:55:00.212Z,1040.16
2017-01-19T07:55:25.794Z,1040.14
2017-01-19T07:55:51.363Z,1040.14
2017-01-19T07:56:17.015Z,1040.14
2017-01-19T07:56:42.556Z,1040.15
2017-01-19T07:57:08.117Z,1040.14
2017-01-19T07:57:33.673Z,1040.16
2017-01-19T07:57:59.258Z,1040.11
2017-01-19T07:58:24.842Z,1040.15
2017-01-19T07:58:50.468Z,1040.13
2017-01-19T07:59:16.051Z,1040.15
2017-01-19T07:59:41.766Z,1040.12
2017-01-19T08:00:07.318Z,1040.11
2017-01-19T08:00:32.891Z,1040.08
2017-01-19T08:00:58.463Z,1040.1
2017-01-19T08:01:24.109Z,1040.12
2017-01-19T08:01:49.681Z,1040.09
2017-01-19T08:02:15.252Z,1040.08
2017-01-19T08:02:40.841Z,1040.08
2017-01-19T08:03:06.396Z,1040.08
2017-01-19T08:03:31.949Z,1040.07
2017-01-19T08:03:57.529Z,1040.06
2017-01-19T08:04:23.080Z,1040.06
2017-01-19T08:04:48.648Z,1040.03
2017-01-19T08:05:14.240Z,1040.04
2017-01-19T08:05:39.837Z,1040.04
2017-01-19T08:06:05.400Z,1039.99
2017-01-19T08:06:30.975Z,1040.06
2017-01-19T08:06:56.542Z,1040.06
2017-01-19T08:07:22.117Z,1040.04
2017-01-19T08:07:47.658Z,1040.04
2017-01-19T08:08:13.227Z,1040.01
2017-01-19T08:08:38.871Z,1040.05
2017-01-19T08:09:04.427Z,1040.04
2017-01-19T08:09:30.040Z,1040.02
2017-01-19T08:09:55.607Z,1040.07
2017-01-19T08:10:21.180Z,1040.08
2017-01-19T08:10:46.710Z,1040.04
2017-01-19T08:11:12.280Z,1040.03
2017-01-19T08:11:37.837Z,1040
2017-01-19T08:12:03.520Z,1040.05
2017-01-19T08:12:29.118Z,1040.06
2017-01-19T08:12:54.686Z,1040.03
2017-01-19T08:13:20.269Z,1040.04
2017-01-19T08:13:45.839Z,1040.05
2017-01-19T08:14:11.415Z,1040.05
2017-01-19T08:14:36.990Z,1040.05
2017-01-19T08:15:02.689Z,1040.09
2017-01-19T08:15:28.256Z,1040.06
2017-01-19T08:15:53.797Z,1040.04
2017-01-19T08:16:19.520Z,1040.04
2017-01-19T08:16:46.120Z,1040.03
2017-01-19T08:17:11.700Z,1040.04
2017-01-19T08:17:37.259Z,1040.07
2017-01-19T08:18:02.819Z,1040.05
2017-01-19T08:18:28.509Z,1040.02
2017-01-19T08:18:54.075Z,1040.06
2017-01-19T08:19:19.635Z,1040.06
2017-01-19T08:19:45.276Z,1040.07
2017-01-19T08:20:10.952Z,1040.08
2017-01-19T08:20:36.500Z,1040.08
2017-01-19T08:21:02.086Z,1040.12
2017-01-19T08:21:27.699Z,1040.08
2017-01-19T08:21:53.539Z,1040.13
2017-01-19T08:22:19.144Z,1040.08
2017-01-19T08:22:44.729Z,1040.1
2017-01-19T08:23:10.363Z,1040.16
2017-01-19T08:23:36.059Z,1040.13
2017-01-19T08:24:01.718Z,1040.17
2017-01-19T08:24:27.310Z,1040.16
2017-01-19T08:24:52.889Z,1040.11
2017-01-19T08:25:18.443Z,1040.16
2017-01-19T08:25:44.046Z,1040.11
2017-01-19T08:26:10.566Z,1040.14
2017-01-19T08:26:36.198Z,1040.11
2017-01-19T08:27:01.894Z,1040.12
2017-01-19T08:27:27.586Z,1040.14
2017-01-19T08:27:53.147Z,1040.13
2017-01-19T08:28:18.700Z,1040.13
2017-01-19T08:28:44.383Z,1040.18
2017-01-19T08:29:09.945Z,1040.19
2017-01-19T08:29:35.502Z,1040.18
2017-01-19T08:30:01.083Z,1040.2
2017-01-19T08:30:26.799Z,1040.2
2017-01-19T08:30:52.366Z,1040.19
2017-01-19T08:31:17.942Z,1040.22
2017-01-19T08:31:43.663Z,1040.22
2017-01-19T08:32:09.230Z,1040.16
2017-01-19T08:32:34.773Z,1040.2
2017-01-19T08:33:00.359Z,1040.18
2017-01-19T08:33:25.926Z,1040.17
2017-01-19T08:33:51.488Z,1040.16
2017-01-19T08:34:17.039Z,1040.16
2017-01-19T08:34:42.792Z,1040.19
2017-01-19T08:35:08.381Z,1040.2
2017-01-19T08:35:33.923Z,1040.18
2017-01-19T08:35:59.611Z,1040.16
2017-01-19T08:36:25.188Z,1040.19
2017-01-19T08:36:50.756Z,1040.18
2017-01-19T08:37:16.440Z,1040.18
2017-01-19T08:37:42.052Z,1040.19
2017-01-19T08:38:07.616Z,1040.22
2017-01-19T08:38:33.174Z,1040.2
2017-01-19T08:38:58.724Z,1040.18
2017-01-19T08:39:24.290Z,1040.21
2017-01-19T08:39:49.878Z,1040.21
2017-01-19T08:40:15.509Z,1040.23
2017-01-19T08:41:24.102Z,1040.22
2017-01-19T08:41:49.757Z,1040.24
2017-01-19T08:42:15.326Z,1040.25
2017-01-19T08:42:40.894Z,1040.3
2017-01-19T08:43:06.548Z,1040.27
2017-01-19T08:43:32.144Z,1040.26
2017-01-19T08:43:57.685Z,1040.25
2017-01-19T08:44:23.238Z,1040.26
2017-01-19T08:44:48.990Z,1040.23
2017-01-19T08:45:14.581Z,1040.24
2017-01-19T08:45:40.203Z,1040.24
2017-01-19T08:46:05.793Z,1040.28
2017-01-19T08:46:31.345Z,1040.24
2017-01-19T08:46:56.905Z,1040.27
2017-01-19T08:47:22.537Z,1040.26
2017-01-19T08:47:48.118Z,1040.23
2017-01-19T08:48:13.683Z,1040.22
2017-01-19T08:48:39.279Z,1040.27
2017-01-19T08:49:04.850Z,1040.25
2017-01-19T08:49:30.414Z,1040.23
2017-01-19T08:49:55.966Z,1040.26
2017-01-19T08:50:21.539Z,1040.31
2017-01-19T08:50:47.150Z,1040.27
2017-01-19T08:51:12.716Z,1040.29
2017-01-19T08:51:38.296Z,1040.33
2017-01-19T08:52:03.900Z,1040.3
2017-01-19T08:52:29.541Z,1040.36
2017-01-19T08:52:55.223Z,1040.39
2017-01-19T08:53:20.676Z,1040.35
2017-01-19T08:53:46.369Z,1040.39
2017-01-19T08:54:11.937Z,1040.38
2017-01-19T08:54:37.498Z,1040.34
2017-01-19T08:55:03.218Z,1040.37
2017-01-19T08:55:28.990Z,1040.38
2017-01-19T08:55:54.498Z,1040.38
2017-01-19T08:56:20.589Z,1040.35
2017-01-19T08:56:46.168Z,1040.35
2017-01-19T08:57:12.094Z,1040.36
2017-01-19T08:57:37.747Z,1040.3
2017-01-19T08:58:03.338Z,1040.32
2017-01-19T08:58:29.779Z,1040.36
2017-01-19T08:58:55.357Z,1040.34
2017-01-19T08:59:20.949Z,1040.34
2017-01-19T08:59:46.526Z,1040.38
2017-01-19T09:00:12.090Z,1040.36
2017-01-19T09:00:37.638Z,1040.36
2017-01-19T09:01:03.205Z,1040.37
2017-01-19T09:01:28.752Z,1040.39
2017-01-19T09:01:54.388Z,1040.37
2017-01-19T09:02:19.970Z,1040.4
2017-01-19T09:02:45.548Z,1040.37
2017-01-19T09:03:11.170Z,1040.37
2017-01-19T09:03:36.941Z,1040.39
2017-01-19T09:04:02.503Z,1040.4
2017-01-19T09:04:28.085Z,1040.42
2017-01-19T09:04:53.656Z,1040.42
2017-01-19T09:05:19.218Z,1040.43
2017-01-19T09:05:44.787Z,1040.44
2017-01-19T09:06:10.339Z,1040.47
2017-01-19T09:06:35.928Z,1040.45
2017-01-19T09:07:01.540Z,1040.47
2017-01-19T09:07:27.096Z,1040.46
2017-01-19T09:07:52.660Z,1040.49
2017-01-19T09:08:18.217Z,1040.45
2017-01-19T09:08:43.771Z,1040.42
2017-01-19T09:09:09.341Z,1040.43
2017-01-19T09:09:34.908Z,1040.4
2017-01-19T09:10:00.470Z,1040.42
2017-01-19T09:10:26.043Z,1040.39
2017-01-19T09:10:51.633Z,1040.4
2017-01-19T09:11:17.212Z,1040.46
2017-01-19T09:11:42.764Z,1040.42
2017-01-19T09:12:08.347Z,1040.41
2017-01-19T09:12:33.939Z,1040.43
2017-01-19T09:12:59.612Z,1040.45